sensor_id;sensor_type;location;lat;lon;timestamp;pressure;altitude;pressure_sealevel;temperature;humidity
7730;BME280;3908;52.310;7.230;2023-01-29T00:00:19;51338.72;;;-145.83;100.00
7730;BME280;3908;52.310;7.230;2023-01-29T00:03:07;51352.41;;;-145.83;100.00
7730;BME280;3908;52.310;7.230;2023-01-29T00:05:54;51356.31;;;-145.83;100.00
7730;BME280;3908;52.310;7.230;2023-01-29T00:08:41;51336.75;;;-145.83;100.00
7730;BME280;3908;52.310;7.230;2023-01-29T00:11:28;51360.22;;;-145.83;100.00
7730;BME280;3908;52.310;7.230;2023-01-29T00:14:16;51297.63;;;-145.83;100.00
7730;BME280;3908;52.310;7.230;2023-01-29T00:17:03;51315.25;;;-145.83;99.68
7730;BME280;3908;52.310;7.230;2023-01-29T00:19:52;51346.53;;;-145.83;100.00
7730;BME280;3908;52.310;7.230;2023-01-29T00:22:39;51328.94;;;-145.83;100.00
7730;BME280;3908;52.310;7.230;2023-01-29T00:25:26;51325.03;;;-145.83;100.00
7730;BME280;3908;52.310;7.230;2023-01-29T00:28:13;51336.75;;;-145.83;100.00
7730;BME280;3908;52.310;7.230;2023-01-29T00:31:06;51354.38;;;-145.83;100.00
7730;BME280;3908;52.310;7.230;2023-01-29T00:33:53;51340.69;;;-145.83;100.00
7730;BME280;3908;52.310;7.230;2023-01-29T00:36:41;51325.03;;;-145.83;100.00
7730;BME280;3908;52.310;7.230;2023-01-29T00:39:29;51344.59;;;-145.83;100.00
7730;BME280;3908;52.310;7.230;2023-01-29T00:42:23;51352.41;;;-145.83;100.00
7730;BME280;3908;52.310;7.230;2023-01-29T00:45:27;51334.81;;;-145.83;100.00
7730;BME280;3908;52.310;7.230;2023-01-29T00:48:15;51338.72;;;-145.83;100.00
7730;BME280;3908;52.310;7.230;2023-01-29T00:51:02;51352.41;;;-145.83;100.00
7730;BME280;3908;52.310;7.230;2023-01-29T00:53:51;51342.63;;;-145.83;100.00
7730;BME280;3908;52.310;7.230;2023-01-29T00:56:39;51323.06;;;-145.83;100.00
7730;BME280;3908;52.310;7.230;2023-01-29T00:59:26;51338.72;;;-145.83;100.00
7730;BME280;3908;52.310;7.230;2023-01-29T01:02:13;51326.97;;;-145.83;100.00
7730;BME280;3908;52.310;7.230;2023-01-29T01:05:18;51301.53;;;-145.83;100.00
7730;BME280;3908;52.310;7.230;2023-01-29T01:08:05;51334.81;;;-145.83;100.00
7730;BME280;3908;52.310;7.230;2023-01-29T01:11:14;51362.19;;;-145.83;100.00
7730;BME280;3908;52.310;7.230;2023-01-29T01:14:00;51348.50;;;-145.83;100.00
7730;BME280;3908;52.310;7.230;2023-01-29T01:16:48;51328.94;;;-145.83;100.00
7730;BME280;3908;52.310;7.230;2023-01-29T01:19:35;51342.63;;;-145.83;100.00
7730;BME280;3908;52.310;7.230;2023-01-29T01:22:22;51338.72;;;-145.83;100.00
7730;BME280;3908;52.310;7.230;2023-01-29T01:25:09;51346.53;;;-145.83;100.00
7730;BME280;3908;52.310;7.230;2023-01-29T01:27:58;51368.06;;;-145.83;100.00
7730;BME280;3908;52.310;7.230;2023-01-29T01:30:45;51336.75;;;-145.83;100.00
7730;BME280;3908;52.310;7.230;2023-01-29T01:33:32;51334.81;;;-145.83;100.00
7730;BME280;3908;52.310;7.230;2023-01-29T01:36:20;51319.16;;;-145.83;100.00
7730;BME280;3908;52.310;7.230;2023-01-29T01:39:07;51344.59;;;-145.83;100.00
7730;BME280;3908;52.310;7.230;2023-01-29T01:41:54;51330.91;;;-145.83;100.00
7730;BME280;3908;52.310;7.230;2023-01-29T01:44:51;51321.09;;;-145.83;100.00
7730;BME280;3908;52.310;7.230;2023-01-29T01:47:41;51307.41;;;-145.83;100.00
7730;BME280;3908;52.310;7.230;2023-01-29T01:50:31;51317.19;;;-145.83;100.00
7730;BME280;3908;52.310;7.230;2023-01-29T01:53:23;51323.06;;;-145.83;100.00
7730;BME280;3908;52.310;7.230;2023-01-29T01:56:13;51336.75;;;-145.83;100.00
7730;BME280;3908;52.310;7.230;2023-01-29T01:59:02;51370.03;;;-145.83;100.00
7730;BME280;3908;52.310;7.230;2023-01-29T02:01:52;51328.94;;;-145.83;100.00
7730;BME280;3908;52.310;7.230;2023-01-29T02:04:44;51346.53;;;-145.83;100.00
7730;BME280;3908;52.310;7.230;2023-01-29T02:07:50;51352.41;;;-145.83;100.00
7730;BME280;3908;52.310;7.230;2023-01-29T02:10:55;51362.19;;;-145.83;100.00
7730;BME280;3908;52.310;7.230;2023-01-29T02:13:42;51325.03;;;-145.83;100.00
7730;BME280;3908;52.310;7.230;2023-01-29T02:16:32;51338.72;;;-145.83;100.00
7730;BME280;3908;52.310;7.230;2023-01-29T02:19:26;51283.94;;;-145.83;100.00
7730;BME280;3908;52.310;7.230;2023-01-29T02:22:28;51340.69;;;-145.83;100.00
7730;BME280;3908;52.310;7.230;2023-01-29T02:25:43;51362.19;;;-145.83;100.00
7730;BME280;3908;52.310;7.230;2023-01-29T02:28:38;51368.06;;;-145.83;100.00
7730;BME280;3908;52.310;7.230;2023-01-29T02:31:33;51362.19;;;-145.83;100.00
7730;BME280;3908;52.310;7.230;2023-01-29T02:34:35;51346.53;;;-145.83;100.00
7730;BME280;3908;52.310;7.230;2023-01-29T02:37:47;51311.31;;;-145.83;100.00
7730;BME280;3908;52.310;7.230;2023-01-29T02:40:41;51340.69;;;-145.83;100.00
7730;BME280;3908;52.310;7.230;2023-01-29T02:43:32;51336.75;;;-145.83;100.00
7730;BME280;3908;52.310;7.230;2023-01-29T02:46:29;51326.97;;;-145.83;100.00
7730;BME280;3908;52.310;7.230;2023-01-29T02:49:22;51336.75;;;-145.83;100.00
7730;BME280;3908;52.310;7.230;2023-01-29T02:52:15;51334.81;;;-145.83;100.00
7730;BME280;3908;52.310;7.230;2023-01-29T02:55:08;51332.84;;;-145.83;100.00
7730;BME280;3908;52.310;7.230;2023-01-29T02:58:02;51358.28;;;-145.83;100.00
7730;BME280;3908;52.310;7.230;2023-01-29T03:00:51;51368.06;;;-145.83;100.00
7730;BME280;3908;52.310;7.230;2023-01-29T03:03:43;51332.84;;;-145.83;100.00
7730;BME280;3908;52.310;7.230;2023-01-29T03:06:34;51332.84;;;-145.83;100.00
7730;BME280;3908;52.310;7.230;2023-01-29T03:09:27;51342.63;;;-145.83;100.00
7730;BME280;3908;52.310;7.230;2023-01-29T03:12:19;51352.41;;;-145.83;100.00
7730;BME280;3908;52.310;7.230;2023-01-29T03:15:24;51348.50;;;-145.83;100.00
7730;BME280;3908;52.310;7.230;2023-01-29T03:18:17;51371.97;;;-145.83;100.00
7730;BME280;3908;52.310;7.230;2023-01-29T03:21:10;51328.94;;;-145.83;100.00
7730;BME280;3908;52.310;7.230;2023-01-29T03:24:15;51393.50;;;-145.83;100.00
7730;BME280;3908;52.310;7.230;2023-01-29T03:27:25;51315.25;;;-145.83;100.00
7730;BME280;3908;52.310;7.230;2023-01-29T03:30:32;51338.72;;;-145.83;100.00
7730;BME280;3908;52.310;7.230;2023-01-29T03:33:42;51315.25;;;-145.83;100.00
7730;BME280;3908;52.310;7.230;2023-01-29T03:36:35;51344.59;;;-145.83;100.00
7730;BME280;3908;52.310;7.230;2023-01-29T03:39:25;51328.94;;;-145.83;100.00
7730;BME280;3908;52.310;7.230;2023-01-29T03:42:18;51366.09;;;-145.83;100.00
7730;BME280;3908;52.310;7.230;2023-01-29T03:45:14;51344.59;;;-145.83;100.00
7730;BME280;3908;52.310;7.230;2023-01-29T03:48:09;51340.69;;;-145.83;100.00
7730;BME280;3908;52.310;7.230;2023-01-29T03:51:00;51366.09;;;-145.83;100.00
7730;BME280;3908;52.310;7.230;2023-01-29T03:53:58;51354.38;;;-145.83;100.00
7730;BME280;3908;52.310;7.230;2023-01-29T03:56:55;51334.81;;;-145.83;100.00
7730;BME280;3908;52.310;7.230;2023-01-29T03:59:49;51301.53;;;-145.83;100.00
7730;BME280;3908;52.310;7.230;2023-01-29T04:02:44;51328.94;;;-145.83;100.00
7730;BME280;3908;52.310;7.230;2023-01-29T04:05:38;51350.47;;;-145.83;100.00
7730;BME280;3908;52.310;7.230;2023-01-29T04:08:28;51346.53;;;-145.83;100.00
7730;BME280;3908;52.310;7.230;2023-01-29T04:11:19;51356.31;;;-145.83;100.00
7730;BME280;3908;52.310;7.230;2023-01-29T04:14:09;51309.38;;;-145.83;100.00
7730;BME280;3908;52.310;7.230;2023-01-29T04:16:59;51375.88;;;-145.83;100.00
7730;BME280;3908;52.310;7.230;2023-01-29T04:19:47;51340.69;;;-145.83;100.00
7730;BME280;3908;52.310;7.230;2023-01-29T04:22:37;51315.25;;;-145.83;100.00
7730;BME280;3908;52.310;7.230;2023-01-29T04:25:27;51321.09;;;-145.83;100.00
7730;BME280;3908;52.310;7.230;2023-01-29T04:28:20;51321.09;;;-145.83;100.00
7730;BME280;3908;52.310;7.230;2023-01-29T04:31:11;51303.50;;;-145.83;100.00
7730;BME280;3908;52.310;7.230;2023-01-29T04:34:06;51301.53;;;-145.83;100.00
7730;BME280;3908;52.310;7.230;2023-01-29T04:37:04;51356.31;;;-145.83;100.00
7730;BME280;3908;52.310;7.230;2023-01-29T04:39:58;51309.38;;;-145.83;100.00
7730;BME280;3908;52.310;7.230;2023-01-29T04:42:54;51368.06;;;-145.83;100.00
7730;BME280;3908;52.310;7.230;2023-01-29T04:45:58;51332.84;;;-145.83;100.00
7730;BME280;3908;52.310;7.230;2023-01-29T04:48:59;51348.50;;;-145.83;100.00
7730;BME280;3908;52.310;7.230;2023-01-29T04:51:54;51352.41;;;-145.83;100.00
7730;BME280;3908;52.310;7.230;2023-01-29T04:54:53;51330.91;;;-145.83;100.00
7730;BME280;3908;52.310;7.230;2023-01-29T04:57:46;51344.59;;;-145.83;100.00
7730;BME280;3908;52.310;7.230;2023-01-29T05:00:39;51317.19;;;-145.83;100.00
7730;BME280;3908;52.310;7.230;2023-01-29T05:03:31;51295.69;;;-145.83;100.00
7730;BME280;3908;52.310;7.230;2023-01-29T05:06:19;51311.31;;;-145.83;100.00
7730;BME280;3908;52.310;7.230;2023-01-29T05:09:07;51330.91;;;-145.83;100.00
7730;BME280;3908;52.310;7.230;2023-01-29T05:11:55;51342.63;;;-145.83;100.00
7730;BME280;3908;52.310;7.230;2023-01-29T05:14:44;51321.09;;;-145.83;100.00
7730;BME280;3908;52.310;7.230;2023-01-29T05:17:32;51348.50;;;-145.83;100.00
7730;BME280;3908;52.310;7.230;2023-01-29T05:20:21;51334.81;;;-145.83;100.00
7730;BME280;3908;52.310;7.230;2023-01-29T05:23:09;51352.41;;;-145.83;100.00
7730;BME280;3908;52.310;7.230;2023-01-29T05:25:56;51336.75;;;-145.83;100.00
7730;BME280;3908;52.310;7.230;2023-01-29T05:28:43;51366.09;;;-145.83;100.00
7730;BME280;3908;52.310;7.230;2023-01-29T05:31:29;51352.41;;;-145.83;100.00
7730;BME280;3908;52.310;7.230;2023-01-29T05:34:17;51338.72;;;-145.83;100.00
7730;BME280;3908;52.310;7.230;2023-01-29T05:37:05;51289.81;;;-145.83;100.00
7730;BME280;3908;52.310;7.230;2023-01-29T05:39:52;51352.41;;;-145.83;100.00
7730;BME280;3908;52.310;7.230;2023-01-29T05:42:39;51373.94;;;-145.83;100.00
7730;BME280;3908;52.310;7.230;2023-01-29T05:45:41;51352.41;;;-145.83;100.00
7730;BME280;3908;52.310;7.230;2023-01-29T05:48:29;51319.16;;;-145.83;100.00
7730;BME280;3908;52.310;7.230;2023-01-29T05:51:17;51360.22;;;-145.83;100.00
7730;BME280;3908;52.310;7.230;2023-01-29T05:54:05;51317.19;;;-145.83;100.00
7730;BME280;3908;52.310;7.230;2023-01-29T05:56:52;51325.03;;;-145.83;100.00
7730;BME280;3908;52.310;7.230;2023-01-29T05:59:39;51342.63;;;-145.83;100.00
7730;BME280;3908;52.310;7.230;2023-01-29T06:02:28;51340.69;;;-145.83;100.00
7730;BME280;3908;52.310;7.230;2023-01-29T06:05:15;51325.03;;;-145.83;100.00
7730;BME280;3908;52.310;7.230;2023-01-29T06:08:03;51332.84;;;-145.83;100.00
7730;BME280;3908;52.310;7.230;2023-01-29T06:10:52;51342.63;;;-145.83;100.00
7730;BME280;3908;52.310;7.230;2023-01-29T06:13:39;51350.47;;;-145.83;100.00
7730;BME280;3908;52.310;7.230;2023-01-29T06:16:26;51352.41;;;-145.83;100.00
7730;BME280;3908;52.310;7.230;2023-01-29T06:19:13;51328.94;;;-145.83;100.00
7730;BME280;3908;52.310;7.230;2023-01-29T06:22:02;51319.16;;;-145.83;100.00
7730;BME280;3908;52.310;7.230;2023-01-29T06:24:49;51338.72;;;-145.83;100.00
7730;BME280;3908;52.310;7.230;2023-01-29T06:27:38;51334.81;;;-145.83;100.00
7730;BME280;3908;52.310;7.230;2023-01-29T06:30:25;51385.66;;;-145.83;100.00
7730;BME280;3908;52.310;7.230;2023-01-29T06:33:12;51344.59;;;-145.83;100.00
7730;BME280;3908;52.310;7.230;2023-01-29T06:36:02;51379.81;;;-145.83;100.00
7730;BME280;3908;52.310;7.230;2023-01-29T06:38:49;51297.63;;;-145.83;100.00
7730;BME280;3908;52.310;7.230;2023-01-29T06:41:36;51311.31;;;-145.83;100.00
7730;BME280;3908;52.310;7.230;2023-01-29T06:44:25;51348.50;;;-145.83;100.00
7730;BME280;3908;52.310;7.230;2023-01-29T06:47:12;51336.75;;;-145.83;100.00
7730;BME280;3908;52.310;7.230;2023-01-29T06:49:59;51323.06;;;-145.83;100.00
7730;BME280;3908;52.310;7.230;2023-01-29T06:52:46;51360.22;;;-145.83;100.00
7730;BME280;3908;52.310;7.230;2023-01-29T06:55:33;51319.16;;;-145.83;100.00
7730;BME280;3908;52.310;7.230;2023-01-29T06:58:20;51336.75;;;-145.83;100.00
7730;BME280;3908;52.310;7.230;2023-01-29T07:01:10;51356.31;;;-145.83;100.00
7730;BME280;3908;52.310;7.230;2023-01-29T07:03:57;51336.75;;;-145.83;100.00
7730;BME280;3908;52.310;7.230;2023-01-29T07:06:44;51319.16;;;-145.83;100.00
7730;BME280;3908;52.310;7.230;2023-01-29T07:09:31;51325.03;;;-145.83;100.00
7730;BME280;3908;52.310;7.230;2023-01-29T07:12:18;51328.94;;;-145.83;100.00
7730;BME280;3908;52.310;7.230;2023-01-29T07:15:06;51344.59;;;-145.83;100.00
7730;BME280;3908;52.310;7.230;2023-01-29T07:18:00;51291.75;;;-145.83;100.00
7730;BME280;3908;52.310;7.230;2023-01-29T07:20:48;51340.69;;;-145.83;100.00
7730;BME280;3908;52.310;7.230;2023-01-29T07:23:36;51340.69;;;-145.83;100.00
7730;BME280;3908;52.310;7.230;2023-01-29T07:26:23;51319.16;;;-145.83;100.00
7730;BME280;3908;52.310;7.230;2023-01-29T07:29:10;51326.97;;;-145.83;100.00
7730;BME280;3908;52.310;7.230;2023-01-29T07:31:57;51309.38;;;-145.83;100.00
7730;BME280;3908;52.310;7.230;2023-01-29T07:34:45;51323.06;;;-145.83;100.00
7730;BME280;3908;52.310;7.230;2023-01-29T07:37:32;51334.81;;;-145.83;100.00
7730;BME280;3908;52.310;7.230;2023-01-29T07:40:20;51315.25;;;-145.83;100.00
7730;BME280;3908;52.310;7.230;2023-01-29T07:43:08;51368.06;;;-145.83;100.00
7730;BME280;3908;52.310;7.230;2023-01-29T07:45:55;51323.06;;;-145.83;100.00
7730;BME280;3908;52.310;7.230;2023-01-29T07:48:42;51368.06;;;-145.83;100.00
7730;BME280;3908;52.310;7.230;2023-01-29T07:51:30;51348.50;;;-145.83;100.00
7730;BME280;3908;52.310;7.230;2023-01-29T07:54:18;51321.09;;;-145.83;100.00
7730;BME280;3908;52.310;7.230;2023-01-29T07:57:05;51313.28;;;-145.83;100.00
7730;BME280;3908;52.310;7.230;2023-01-29T07:59:52;51330.91;;;-145.83;100.00
7730;BME280;3908;52.310;7.230;2023-01-29T08:02:39;51354.38;;;-145.83;100.00
7730;BME280;3908;52.310;7.230;2023-01-29T08:05:26;51340.69;;;-145.83;100.00
7730;BME280;3908;52.310;7.230;2023-01-29T08:08:15;51311.31;;;-145.83;100.00
7730;BME280;3908;52.310;7.230;2023-01-29T08:11:04;51356.31;;;-145.83;100.00
7730;BME280;3908;52.310;7.230;2023-01-29T08:17:37;51352.41;;;-145.83;100.00
7730;BME280;3908;52.310;7.230;2023-01-29T08:23:34;51344.59;;;-145.83;100.00
7730;BME280;3908;52.310;7.230;2023-01-29T08:26:21;51368.06;;;-145.83;100.00
7730;BME280;3908;52.310;7.230;2023-01-29T08:29:11;51350.47;;;-145.83;100.00
7730;BME280;3908;52.310;7.230;2023-01-29T08:31:58;51321.09;;;-145.83;100.00
7730;BME280;3908;52.310;7.230;2023-01-29T08:34:45;51358.28;;;-145.83;100.00
7730;BME280;3908;52.310;7.230;2023-01-29T08:37:33;51364.16;;;-145.83;100.00
7730;BME280;3908;52.310;7.230;2023-01-29T08:40:21;51328.94;;;-145.83;100.00
7730;BME280;3908;52.310;7.230;2023-01-29T08:43:10;51334.81;;;-145.83;100.00
7730;BME280;3908;52.310;7.230;2023-01-29T08:45:57;51336.75;;;-145.83;100.00
7730;BME280;3908;52.310;7.230;2023-01-29T08:48:44;51352.41;;;-145.83;100.00
7730;BME280;3908;52.310;7.230;2023-01-29T08:51:31;51354.38;;;-145.83;100.00
7730;BME280;3908;52.310;7.230;2023-01-29T08:54:18;51364.16;;;-145.83;100.00
7730;BME280;3908;52.310;7.230;2023-01-29T08:57:06;51336.75;;;-145.83;100.00
7730;BME280;3908;52.310;7.230;2023-01-29T08:59:53;51332.84;;;-145.83;100.00
7730;BME280;3908;52.310;7.230;2023-01-29T09:02:40;51330.91;;;-145.83;100.00
7730;BME280;3908;52.310;7.230;2023-01-29T09:05:28;51338.72;;;-145.83;100.00
7730;BME280;3908;52.310;7.230;2023-01-29T09:08:15;51336.75;;;-145.83;100.00
7730;BME280;3908;52.310;7.230;2023-01-29T09:11:02;51358.28;;;-145.83;100.00
7730;BME280;3908;52.310;7.230;2023-01-29T09:13:50;51362.19;;;-145.83;100.00
7730;BME280;3908;52.310;7.230;2023-01-29T09:16:37;51348.50;;;-145.83;100.00
7730;BME280;3908;52.310;7.230;2023-01-29T09:19:24;51330.91;;;-145.83;100.00
7730;BME280;3908;52.310;7.230;2023-01-29T09:22:11;51344.59;;;-145.83;100.00
7730;BME280;3908;52.310;7.230;2023-01-29T09:24:58;51340.69;;;-145.83;100.00
7730;BME280;3908;52.310;7.230;2023-01-29T09:27:45;51370.03;;;-145.83;100.00
7730;BME280;3908;52.310;7.230;2023-01-29T09:30:33;51350.47;;;-145.83;100.00
7730;BME280;3908;52.310;7.230;2023-01-29T09:33:22;51336.75;;;-145.83;100.00
7730;BME280;3908;52.310;7.230;2023-01-29T09:36:10;51348.50;;;-145.83;100.00
7730;BME280;3908;52.310;7.230;2023-01-29T09:38:57;51385.66;;;-145.83;100.00
7730;BME280;3908;52.310;7.230;2023-01-29T09:41:52;51340.69;;;-145.83;100.00
7730;BME280;3908;52.310;7.230;2023-01-29T09:44:47;51366.09;;;-145.83;100.00
7730;BME280;3908;52.310;7.230;2023-01-29T09:47:39;51326.97;;;-145.83;100.00
7730;BME280;3908;52.310;7.230;2023-01-29T09:50:29;51379.81;;;-145.83;100.00
7730;BME280;3908;52.310;7.230;2023-01-29T09:53:19;51371.97;;;-145.83;100.00
7730;BME280;3908;52.310;7.230;2023-01-29T09:56:11;51371.97;;;-145.83;100.00
7730;BME280;3908;52.310;7.230;2023-01-29T09:59:00;51360.22;;;-145.83;100.00
7730;BME280;3908;52.310;7.230;2023-01-29T10:01:54;51332.84;;;-145.83;100.00
7730;BME280;3908;52.310;7.230;2023-01-29T10:05:02;51370.03;;;-145.83;100.00
7730;BME280;3908;52.310;7.230;2023-01-29T10:08:24;51354.38;;;-145.83;100.00
7730;BME280;3908;52.310;7.230;2023-01-29T10:11:22;51348.50;;;-145.83;100.00
7730;BME280;3908;52.310;7.230;2023-01-29T10:14:25;51319.16;;;-145.83;100.00
7730;BME280;3908;52.310;7.230;2023-01-29T10:17:28;51305.47;;;-145.83;100.00
7730;BME280;3908;52.310;7.230;2023-01-29T10:20:40;51325.03;;;-145.83;100.00
7730;BME280;3908;52.310;7.230;2023-01-29T10:23:30;51338.72;;;-145.83;100.00
7730;BME280;3908;52.310;7.230;2023-01-29T10:26:20;51350.47;;;-145.83;100.00
7730;BME280;3908;52.310;7.230;2023-01-29T10:29:15;51356.31;;;-145.83;100.00
7730;BME280;3908;52.310;7.230;2023-01-29T10:32:04;51403.28;;;-145.83;100.00
7730;BME280;3908;52.310;7.230;2023-01-29T10:34:53;51360.22;;;-145.83;100.00
7730;BME280;3908;52.310;7.230;2023-01-29T10:37:43;51338.72;;;-145.83;100.00
7730;BME280;3908;52.310;7.230;2023-01-29T10:40:36;51385.66;;;-145.83;100.00
7730;BME280;3908;52.310;7.230;2023-01-29T10:43:30;51379.81;;;-145.83;100.00
7730;BME280;3908;52.310;7.230;2023-01-29T10:46:24;51326.97;;;-145.83;100.00
7730;BME280;3908;52.310;7.230;2023-01-29T10:49:24;51360.22;;;-145.83;100.00
7730;BME280;3908;52.310;7.230;2023-01-29T10:52:24;51368.06;;;-145.83;100.00
7730;BME280;3908;52.310;7.230;2023-01-29T10:55:26;51379.81;;;-145.83;100.00
7730;BME280;3908;52.310;7.230;2023-01-29T10:58:27;51354.38;;;-145.83;100.00
7730;BME280;3908;52.310;7.230;2023-01-29T11:01:16;51352.41;;;-145.83;99.52
7730;BME280;3908;52.310;7.230;2023-01-29T11:04:05;51346.53;;;-145.83;100.00
7730;BME280;3908;52.310;7.230;2023-01-29T11:06:55;51323.06;;;-145.83;100.00
7730;BME280;3908;52.310;7.230;2023-01-29T11:09:45;51354.38;;;-145.83;99.56
7730;BME280;3908;52.310;7.230;2023-01-29T11:12:38;51358.28;;;-145.83;99.90
7730;BME280;3908;52.310;7.230;2023-01-29T11:15:28;51334.81;;;-145.83;98.98
7730;BME280;3908;52.310;7.230;2023-01-29T11:18:17;51397.41;;;-145.83;97.34
7730;BME280;3908;52.310;7.230;2023-01-29T11:21:04;51336.75;;;-145.83;96.15
7730;BME280;3908;52.310;7.230;2023-01-29T11:24:05;51340.69;;;-145.83;96.49
7730;BME280;3908;52.310;7.230;2023-01-29T11:26:54;51360.22;;;-145.83;95.88
7730;BME280;3908;52.310;7.230;2023-01-29T11:29:47;51332.84;;;-145.83;95.25
7730;BME280;3908;52.310;7.230;2023-01-29T11:32:34;51358.28;;;-145.83;95.50
7730;BME280;3908;52.310;7.230;2023-01-29T11:35:23;51370.03;;;-145.83;94.95
7730;BME280;3908;52.310;7.230;2023-01-29T11:38:18;51368.06;;;-145.83;95.07
7730;BME280;3908;52.310;7.230;2023-01-29T11:41:14;51352.41;;;-145.83;93.66
7730;BME280;3908;52.310;7.230;2023-01-29T11:44:16;51370.03;;;-145.83;94.19
7730;BME280;3908;52.310;7.230;2023-01-29T11:47:14;51340.69;;;-145.83;94.61
7730;BME280;3908;52.310;7.230;2023-01-29T11:50:03;51344.59;;;-145.83;94.38
7730;BME280;3908;52.310;7.230;2023-01-29T11:52:51;51383.72;;;-145.83;94.73
7730;BME280;3908;52.310;7.230;2023-01-29T11:55:38;51336.75;;;-145.83;95.78
7730;BME280;3908;52.310;7.230;2023-01-29T11:58:32;51348.50;;;-145.83;95.76
7730;BME280;3908;52.310;7.230;2023-01-29T12:01:29;51319.16;;;-145.83;95.44
7730;BME280;3908;52.310;7.230;2023-01-29T12:04:21;51352.41;;;-145.83;95.57
7730;BME280;3908;52.310;7.230;2023-01-29T12:07:11;51371.97;;;-145.83;95.64
7730;BME280;3908;52.310;7.230;2023-01-29T12:10:00;51377.84;;;-145.83;95.64
7730;BME280;3908;52.310;7.230;2023-01-29T12:12:48;51364.16;;;-145.83;95.94
7730;BME280;3908;52.310;7.230;2023-01-29T12:15:35;51362.19;;;-145.83;95.56
7730;BME280;3908;52.310;7.230;2023-01-29T12:18:26;51340.69;;;-145.83;96.13
7730;BME280;3908;52.310;7.230;2023-01-29T12:21:23;51336.75;;;-145.83;96.99
7730;BME280;3908;52.310;7.230;2023-01-29T12:24:22;51397.41;;;-145.83;96.98
7730;BME280;3908;52.310;7.230;2023-01-29T12:27:15;51403.28;;;-145.83;97.76
7730;BME280;3908;52.310;7.230;2023-01-29T12:30:06;51362.19;;;-145.83;98.53
7730;BME280;3908;52.310;7.230;2023-01-29T12:33:01;51370.03;;;-145.83;99.03
7730;BME280;3908;52.310;7.230;2023-01-29T12:35:53;51352.41;;;-145.83;100.00
7730;BME280;3908;52.310;7.230;2023-01-29T12:38:45;51328.94;;;-145.83;100.00
7730;BME280;3908;52.310;7.230;2023-01-29T12:41:36;51354.38;;;-145.83;100.00
7730;BME280;3908;52.310;7.230;2023-01-29T12:44:30;51356.31;;;-145.83;100.00
7730;BME280;3908;52.310;7.230;2023-01-29T12:47:22;51356.31;;;-145.83;100.00
7730;BME280;3908;52.310;7.230;2023-01-29T12:50:15;51358.28;;;-145.83;100.00
7730;BME280;3908;52.310;7.230;2023-01-29T12:53:11;51364.16;;;-145.83;100.00
7730;BME280;3908;52.310;7.230;2023-01-29T12:56:09;51342.63;;;-145.83;100.00
7730;BME280;3908;52.310;7.230;2023-01-29T12:59:00;51354.38;;;-145.83;100.00
7730;BME280;3908;52.310;7.230;2023-01-29T13:01:51;51328.94;;;-145.83;100.00
7730;BME280;3908;52.310;7.230;2023-01-29T13:04:42;51370.03;;;-145.83;100.00
7730;BME280;3908;52.310;7.230;2023-01-29T13:07:35;51368.06;;;-145.83;100.00
7730;BME280;3908;52.310;7.230;2023-01-29T13:10:28;51321.09;;;-145.83;100.00
7730;BME280;3908;52.310;7.230;2023-01-29T13:13:23;51364.16;;;-145.83;100.00
7730;BME280;3908;52.310;7.230;2023-01-29T13:16:13;51373.94;;;-145.83;100.00
7730;BME280;3908;52.310;7.230;2023-01-29T13:19:19;51375.88;;;-145.83;100.00
7730;BME280;3908;52.310;7.230;2023-01-29T13:22:15;51332.84;;;-145.83;100.00
7730;BME280;3908;52.310;7.230;2023-01-29T13:25:04;51362.19;;;-145.83;100.00
7730;BME280;3908;52.310;7.230;2023-01-29T13:27:55;51326.97;;;-145.83;100.00
7730;BME280;3908;52.310;7.230;2023-01-29T13:30:45;51348.50;;;-145.83;100.00
7730;BME280;3908;52.310;7.230;2023-01-29T13:33:32;51334.81;;;-145.83;100.00
7730;BME280;3908;52.310;7.230;2023-01-29T13:36:24;51364.16;;;-145.83;100.00
7730;BME280;3908;52.310;7.230;2023-01-29T13:39:19;51373.94;;;-145.83;100.00
7730;BME280;3908;52.310;7.230;2023-01-29T13:42:15;51399.38;;;-145.83;100.00
7730;BME280;3908;52.310;7.230;2023-01-29T13:45:05;51334.81;;;-145.83;100.00
7730;BME280;3908;52.310;7.230;2023-01-29T13:48:08;51387.63;;;-145.83;100.00
7730;BME280;3908;52.310;7.230;2023-01-29T13:50:56;51358.28;;;-145.83;100.00
7730;BME280;3908;52.310;7.230;2023-01-29T13:53:52;51371.97;;;-145.83;100.00
7730;BME280;3908;52.310;7.230;2023-01-29T13:56:44;51368.06;;;-145.83;100.00
7730;BME280;3908;52.310;7.230;2023-01-29T13:59:51;51371.97;;;-145.83;100.00
7730;BME280;3908;52.310;7.230;2023-01-29T14:02:39;51360.22;;;-145.83;100.00
7730;BME280;3908;52.310;7.230;2023-01-29T14:05:57;51366.09;;;-145.83;100.00
7730;BME280;3908;52.310;7.230;2023-01-29T14:08:44;51399.38;;;-145.83;100.00
7730;BME280;3908;52.310;7.230;2023-01-29T14:11:35;51371.97;;;-145.83;100.00
7730;BME280;3908;52.310;7.230;2023-01-29T14:14:57;51368.06;;;-145.83;100.00
7730;BME280;3908;52.310;7.230;2023-01-29T14:17:55;51356.31;;;-145.83;100.00
7730;BME280;3908;52.310;7.230;2023-01-29T14:20:57;51368.06;;;-145.83;100.00
7730;BME280;3908;52.310;7.230;2023-01-29T14:23:46;51319.16;;;-145.83;100.00
7730;BME280;3908;52.310;7.230;2023-01-29T14:26:41;51321.09;;;-145.83;100.00
7730;BME280;3908;52.310;7.230;2023-01-29T14:29:34;51344.59;;;-145.83;100.00
7730;BME280;3908;52.310;7.230;2023-01-29T14:32:24;51360.22;;;-145.83;100.00
7730;BME280;3908;52.310;7.230;2023-01-29T14:35:17;51389.59;;;-145.83;100.00
7730;BME280;3908;52.310;7.230;2023-01-29T14:38:13;51340.69;;;-145.83;100.00
7730;BME280;3908;52.310;7.230;2023-01-29T14:41:04;51381.75;;;-145.83;100.00
7730;BME280;3908;52.310;7.230;2023-01-29T14:47:17;51330.91;;;-145.83;100.00
7730;BME280;3908;52.310;7.230;2023-01-29T14:51:19;51334.81;;;-145.83;100.00
7730;BME280;3908;52.310;7.230;2023-01-29T14:54:13;51352.41;;;-145.83;100.00
7730;BME280;3908;52.310;7.230;2023-01-29T14:57:03;51379.81;;;-145.83;100.00
7730;BME280;3908;52.310;7.230;2023-01-29T14:59:55;51309.38;;;-145.83;100.00
7730;BME280;3908;52.310;7.230;2023-01-29T15:02:44;51342.63;;;-145.83;100.00
7730;BME280;3908;52.310;7.230;2023-01-29T15:05:35;51340.69;;;-145.83;100.00
7730;BME280;3908;52.310;7.230;2023-01-29T15:08:26;51356.31;;;-145.83;100.00